Time;durP1;ratioP1;P1;durP2;ratioP2;P2;SDS_P1;SDS_P2;PMS_P1;PMS_P2;Temp;Humidity;BMP_temperature;BMP_pressure;BME280_temperature;BME280_humidity;BME280_pressure;Samples;Min_cycle;Max_cycle;Signal;HPM_P1;HPM_P2
2023/08/28 00:02:01;;;;;;;9.00;2.10;;;;;;;17.50;100.00;100390.41;5078022;28;20031;-72
2023/08/28 00:04:27;;;;;;;6.88;2.28;;;;;;;17.51;100.00;100402.91;5074454;28;20035;-72
2023/08/28 00:06:52;;;;;;;10.10;2.70;;;;;;;17.54;100.00;100402.41;5077705;28;20032;-72
2023/08/28 00:09:18;;;;;;;8.55;2.70;;;;;;;17.50;100.00;100398.56;5076403;28;20043;-72
2023/08/28 00:11:44;;;;;;;7.97;2.25;;;;;;;17.47;100.00;100400.97;5078399;28;20059;-72
2023/08/28 00:14:09;;;;;;;5.97;2.33;;;;;;;17.35;100.00;100382.91;5078402;28;20100;-72
2023/08/28 00:16:36;;;;;;;10.35;2.60;;;;;;;17.43;100.00;100395.22;5098376;28;20031;-72
2023/08/28 00:19:02;;;;;;;6.90;2.10;;;;;;;17.32;100.00;100388.84;5098452;28;20067;-72
2023/08/28 00:21:28;;;;;;;8.68;2.53;;;;;;;17.41;100.00;100396.53;5064384;28;20082;-72
2023/08/28 00:23:54;;;;;;;7.85;2.50;;;;;;;17.40;100.00;100389.47;5079085;28;20032;-72
2023/08/28 00:26:19;;;;;;;7.32;2.47;;;;;;;17.30;100.00;100385.53;5079633;28;20047;-72
2023/08/28 00:28:44;;;;;;;8.48;2.60;;;;;;;17.35;100.00;100392.94;5099026;28;20553;-72
2023/08/28 00:31:10;;;;;;;5.95;2.53;;;;;;;17.34;100.00;100383.94;5098298;28;20020;-72
2023/08/28 00:33:35;;;;;;;6.88;2.60;;;;;;;17.32;100.00;100383.41;5080855;28;20142;-72
2023/08/28 00:36:01;;;;;;;7.03;2.53;;;;;;;17.46;100.00;100388.44;5098863;28;20024;-72
2023/08/28 00:38:26;;;;;;;5.75;2.55;;;;;;;17.49;100.00;100383.31;5098173;28;20403;-72
2023/08/28 00:40:51;;;;;;;7.47;2.60;;;;;;;17.49;100.00;100372.44;5080281;28;20036;-72
2023/08/28 00:43:17;;;;;;;7.47;2.70;;;;;;;17.56;100.00;100377.69;5080806;28;20035;-72
2023/08/28 00:45:43;;;;;;;5.82;2.58;;;;;;;17.53;100.00;100379.00;5097092;28;20028;-72
2023/08/28 00:48:12;;;;;;;8.43;3.05;;;;;;;17.52;100.00;100377.38;5098453;28;20028;-72
2023/08/28 00:50:38;;;;;;;5.95;2.72;;;;;;;17.45;100.00;100386.78;5099855;28;20051;-72
2023/08/28 00:53:04;;;;;;;6.57;2.70;;;;;;;17.38;100.00;100382.38;5098389;28;20097;-72
2023/08/28 00:55:34;;;;;;;6.45;2.78;;;;;;;17.35;100.00;100382.91;5098683;28;20039;-73
2023/08/28 00:58:01;;;;;;;6.30;2.70;;;;;;;17.34;100.00;100385.84;5098252;28;20394;-72
2023/08/28 01:00:27;;;;;;;8.60;2.88;;;;;;;17.34;100.00;100380.41;5081143;28;20115;-72
2023/08/28 01:02:53;;;;;;;6.60;2.70;;;;;;;17.30;100.00;100371.13;5095668;28;20062;-72
2023/08/28 01:05:29;;;;;;;6.85;2.65;;;;;;;17.33;100.00;100373.34;5075943;28;20025;-72
2023/08/28 01:08:02;;;;;;;6.80;2.40;;;;;;;17.14;100.00;100381.81;5097685;28;20103;-72
2023/08/28 01:10:37;;;;;;;8.15;3.10;;;;;;;17.20;100.00;100374.53;5097581;28;20053;-72
2023/08/28 01:13:17;;;;;;;;;;;;;;;17.23;100.00;100374.03;5094409;28;20110;-72
2023/08/28 01:15:44;;;;;;;9.52;3.10;;;;;;;17.07;100.00;100355.91;5097758;28;19918;-72
2023/08/28 01:18:10;;;;;;;6.68;2.83;;;;;;;17.20;100.00;100379.97;5099319;28;20024;-72
2023/08/28 01:20:35;;;;;;;5.93;3.03;;;;;;;17.12;100.00;100366.84;5098418;28;20031;-71
2023/08/28 01:23:21;;;;;;;5.28;2.70;;;;;;;17.14;100.00;100376.38;5100530;28;20103;-72
2023/08/28 01:25:48;;;;;;;5.65;3.20;;;;;;;17.08;100.00;100371.13;5098758;28;20154;-72
2023/08/28 01:28:14;;;;;;;9.20;3.08;;;;;;;17.04;100.00;100376.25;5099488;28;20094;-72
2023/08/28 01:30:39;;;;;;;5.13;2.83;;;;;;;16.95;100.00;100368.78;5079875;28;20077;-72
2023/08/28 01:33:05;;;;;;;4.55;2.90;;;;;;;16.95;100.00;100379.66;5097381;28;20039;-72
2023/08/28 01:35:32;;;;;;;8.20;3.50;;;;;;;16.85;100.00;100366.75;5097533;28;20032;-71
2023/08/28 01:38:04;;;;;;;7.95;3.25;;;;;;;16.86;100.00;100380.09;5097930;28;20032;-72
2023/08/28 01:40:38;;;;;;;5.60;2.90;;;;;;;16.83;100.00;100366.19;5098644;28;20016;-72
2023/08/28 01:43:08;;;;;;;7.28;2.90;;;;;;;16.63;100.00;100353.94;5098483;28;20024;-72
2023/08/28 01:45:36;;;;;;;5.47;2.97;;;;;;;16.73;100.00;100369.56;5095337;28;20033;-72
2023/08/28 01:48:02;;;;;;;6.20;2.90;;;;;;;16.69;100.00;100376.56;5097497;28;20024;-72
2023/08/28 01:50:27;;;;;;;11.68;3.38;;;;;;;16.64;100.00;100366.44;5096770;28;20509;-72
2023/08/28 01:52:53;;;;;;;5.30;3.33;;;;;;;16.63;100.00;100374.84;5080277;28;20048;-72
2023/08/28 01:55:44;;;;;;;5.13;2.80;;;;;;;16.56;100.00;100369.59;5096849;28;20078;-72
2023/08/28 01:58:11;;;;;;;8.00;3.35;;;;;;;16.58;100.00;100374.75;5098825;28;20085;-72
2023/08/28 02:00:36;;;;;;;6.75;3.28;;;;;;;16.57;100.00;100367.69;5098072;28;20546;-72
2023/08/28 02:03:02;;;;;;;6.45;3.05;;;;;;;16.52;100.00;100373.03;5086285;28;20063;-73
2023/08/28 02:05:28;;;;;;;7.47;3.35;;;;;;;16.52;100.00;100367.59;5103657;28;20032;-72
2023/08/28 02:07:53;;;;;;;5.03;3.03;;;;;;;16.51;100.00;100358.63;5096214;28;20089;-72
2023/08/28 02:10:18;;;;;;;8.07;2.95;;;;;;;16.59;100.00;100357.41;5096590;28;20816;-72
2023/08/28 02:12:44;;;;;;;7.63;2.88;;;;;;;16.57;100.00;100357.66;5096178;28;20031;-72
2023/08/28 02:15:09;;;;;;;7.25;2.70;;;;;;;16.54;100.00;100354.63;5096019;28;20020;-72
2023/08/28 02:17:35;;;;;;;6.22;2.60;;;;;;;16.53;100.00;100358.41;5096676;28;20398;-72
2023/08/28 02:20:00;;;;;;;4.13;2.75;;;;;;;16.48;100.00;100356.41;5078740;28;20024;-73
2023/08/28 02:22:26;;;;;;;6.80;2.78;;;;;;;16.47;100.00;100360.22;5096479;28;20024;-72
2023/08/28 02:24:51;;;;;;;7.43;2.92;;;;;;;16.43;100.00;100353.66;5095561;28;20059;-72
2023/08/28 02:27:16;;;;;;;5.78;2.97;;;;;;;16.44;100.00;100363.44;5096927;28;20040;-72
2023/08/28 02:29:42;;;;;;;6.07;3.67;;;;;;;16.40;100.00;100360.38;5095469;28;20478;-72
2023/08/28 02:32:07;;;;;;;6.85;3.30;;;;;;;16.44;100.00;100358.00;5079092;28;20028;-72
2023/08/28 02:34:33;;;;;;;3.72;3.28;;;;;;;16.46;100.00;100358.59;5095417;28;20059;-72
2023/08/28 02:36:58;;;;;;;10.70;3.45;;;;;;;16.44;100.00;100347.94;5096268;28;20020;-72
2023/08/28 02:39:23;;;;;;;4.28;2.60;;;;;;;16.45;100.00;100355.03;5094769;28;20122;-72
2023/08/28 02:41:49;;;;;;;6.15;3.03;;;;;;;16.44;100.00;100347.13;5095225;28;20035;-72
2023/08/28 02:44:14;;;;;;;5.13;2.92;;;;;;;16.49;100.00;100357.25;5094351;28;20084;-72
2023/08/28 02:46:39;;;;;;;4.68;2.50;;;;;;;16.50;100.00;100359.72;5091272;28;20032;-72
2023/08/28 02:49:05;;;;;;;4.55;2.72;;;;;;;16.49;100.00;100349.94;5062808;28;20036;-72
2023/08/28 02:51:31;;;;;;;5.18;2.53;;;;;;;16.48;100.00;100356.41;5096364;28;20076;-72
2023/08/28 02:53:56;;;;;;;5.30;2.90;;;;;;;16.45;100.00;100346.88;5098816;28;20054;-72
2023/08/28 02:56:24;;;;;;;4.63;2.50;;;;;;;16.43;100.00;100351.75;5098187;28;20467;-72
2023/08/28 02:58:51;;;;;;;4.60;2.90;;;;;;;16.43;100.00;100359.06;5098375;28;20421;-72
2023/08/28 03:01:17;;;;;;;6.45;3.08;;;;;;;16.40;100.00;100360.38;5083314;28;20028;-72
2023/08/28 03:03:43;;;;;;;5.68;3.10;;;;;;;15.74;100.00;100246.19;5097946;28;20056;-72
2023/08/28 03:06:08;;;;;;;5.65;2.97;;;;;;;16.34;100.00;100350.53;5095239;28;20083;-72
2023/08/28 03:08:34;;;;;;;3.55;2.85;;;;;;;16.38;100.00;100345.41;5077407;28;20103;-72
2023/08/28 03:10:59;;;;;;;5.22;3.20;;;;;;;16.37;100.00;100343.78;5094749;28;20039;-71
2023/08/28 03:13:25;;;;;;;5.60;2.60;;;;;;;16.32;100.00;100344.50;5095052;28;20100;-72
2023/08/28 03:15:50;;;;;;;3.97;2.90;;;;;;;16.28;100.00;100346.06;5061654;28;20071;-71
2023/08/28 03:18:16;;;;;;;6.63;3.28;;;;;;;16.26;100.00;100344.66;5094859;28;20092;-72
2023/08/28 03:20:41;;;;;;;5.00;2.80;;;;;;;16.27;100.00;100349.06;5095401;28;20032;-71
2023/08/28 03:23:09;;;;;;;5.55;2.63;;;;;;;16.09;100.00;100331.09;5096173;28;20032;-72
2023/08/28 03:25:35;;;;;;;4.30;3.00;;;;;;;16.26;100.00;100348.25;5078227;28;20024;-72
2023/08/28 03:28:01;;;;;;;5.32;3.00;;;;;;;16.31;100.00;100351.00;5094921;28;20020;-72
2023/08/28 03:30:27;;;;;;;4.13;2.67;;;;;;;16.27;100.00;100347.16;5094336;28;20024;-72
2023/08/28 03:32:53;;;;;;;5.32;3.08;;;;;;;16.30;100.00;100356.72;5095982;28;20036;-72
2023/08/28 03:35:18;;;;;;;4.53;2.58;;;;;;;16.31;100.00;100352.91;5094254;28;20028;-71
2023/08/28 03:37:44;;;;;;;4.05;2.60;;;;;;;16.18;100.00;100335.06;5094791;28;20532;-72
2023/08/28 03:40:10;;;;;;;5.63;2.70;;;;;;;16.29;100.00;100345.03;5061278;28;20034;-72
2023/08/28 03:42:36;;;;;;;4.80;2.80;;;;;;;16.31;100.00;100344.75;5078170;28;20020;-72
2023/08/28 03:45:01;;;;;;;3.92;2.90;;;;;;;16.28;100.00;100346.06;5080845;28;20036;-72
2023/08/28 03:47:26;;;;;;;5.32;2.55;;;;;;;16.18;100.00;100343.22;5080362;28;20035;-72
2023/08/28 03:49:52;;;;;;;3.97;2.42;;;;;;;16.24;100.00;100339.50;5075025;28;20036;-72
2023/08/28 03:52:17;;;;;;;3.38;2.70;;;;;;;16.27;100.00;100343.63;5074273;28;20508;-72
2023/08/28 03:54:43;;;;;;;3.53;2.30;;;;;;;16.27;100.00;100336.28;5074462;28;20507;-72
2023/08/28 03:57:08;;;;;;;3.00;2.70;;;;;;;16.13;100.00;100310.56;5076281;28;20471;-72
2023/08/28 03:59:33;;;;;;;3.55;2.35;;;;;;;16.30;100.00;100333.09;5073969;28;20075;-72
2023/08/28 04:01:59;;;;;;;3.67;2.53;;;;;;;16.29;100.00;100330.59;5081495;28;20035;-73
2023/08/28 04:04:27;;;;;;;4.38;2.17;;;;;;;16.26;100.00;100329.22;5102170;28;20016;-72
2023/08/28 04:06:53;;;;;;;3.03;2.40;;;;;;;16.25;100.00;100334.88;5085337;28;20032;-72
2023/08/28 04:09:18;;;;;;;4.47;2.47;;;;;;;16.11;100.00;100324.38;5092766;28;20050;-72
2023/08/28 04:11:44;;;;;;;5.18;2.47;;;;;;;16.16;100.00;100342.66;5098122;28;20028;-72
2023/08/28 04:14:09;;;;;;;3.72;2.33;;;;;;;16.17;100.00;100349.72;5081068;28;20551;-72
2023/08/28 04:16:35;;;;;;;5.03;2.45;;;;;;;16.20;100.00;100341.06;5060778;28;20043;-72
2023/08/28 04:19:00;;;;;;;3.45;2.60;;;;;;;16.13;100.00;100327.66;5077212;28;20028;-72
2023/08/28 04:21:25;;;;;;;3.28;2.53;;;;;;;16.22;100.00;100347.06;5094287;28;20028;-73
2023/08/28 04:23:51;;;;;;;4.85;3.00;;;;;;;16.23;100.00;100351.44;5079587;28;20102;-72
2023/08/28 04:26:16;;;;;;;2.83;2.45;;;;;;;16.27;100.00;100355.31;5090737;28;20024;-73
2023/08/28 04:28:42;;;;;;;6.18;2.70;;;;;;;16.29;100.00;100346.91;5077226;28;20024;-71
2023/08/28 04:31:12;;;;;;;4.07;2.72;;;;;;;16.30;100.00;100337.69;5078723;28;20075;-72
2023/08/28 04:33:38;;;;;;;5.25;2.83;;;;;;;16.36;100.00;100342.97;5080103;28;20036;-71
2023/08/28 04:36:03;;;;;;;4.70;2.92;;;;;;;16.42;100.00;100341.13;5098916;28;20398;-71
2023/08/28 04:38:29;;;;;;;3.97;2.65;;;;;;;16.46;100.00;100342.28;5080576;28;20032;-71
2023/08/28 04:40:54;;;;;;;5.35;2.60;;;;;;;16.50;100.00;100348.03;5081138;28;20024;-71
2023/08/28 04:43:20;;;;;;;3.40;2.65;;;;;;;16.54;100.00;100347.28;5079245;28;20036;-71
2023/08/28 04:45:48;;;;;;;6.07;2.83;;;;;;;16.58;100.00;100344.88;5060543;28;20037;-71
2023/08/28 04:48:14;;;;;;;6.47;2.58;;;;;;;16.63;100.00;100350.41;5078291;28;20040;-70
2023/08/28 04:50:41;;;;;;;5.32;2.20;;;;;;;16.66;100.00;100352.63;5079384;28;20111;-70
2023/08/28 04:53:06;;;;;;;3.60;2.47;;;;;;;16.72;100.00;100346.19;5078238;28;20060;-71
2023/08/28 04:55:32;;;;;;;4.07;2.65;;;;;;;16.71;100.00;100336.38;5080577;28;20029;-71
2023/08/28 04:57:57;;;;;;;4.93;2.63;;;;;;;16.69;100.00;100335.81;5097556;28;20384;-70
2023/08/28 05:00:22;;;;;;;2.63;2.22;;;;;;;16.76;100.00;100341.91;5097276;28;20103;-70
2023/08/28 05:02:48;;;;;;;3.63;2.42;;;;;;;16.86;100.00;100352.09;5097679;28;20027;-71
2023/08/28 05:05:13;;;;;;;2.60;2.05;;;;;;;16.85;100.00;100362.16;5097485;28;20040;-71
2023/08/28 05:07:39;;;;;;;3.13;2.30;;;;;;;16.87;100.00;100354.56;5062533;28;20055;-72
2023/08/28 05:10:04;;;;;;;2.58;2.15;;;;;;;16.98;100.00;100355.50;5101161;28;20482;-71
2023/08/28 05:12:33;;;;;;;5.07;2.30;;;;;;;17.00;100.00;100358.81;5096061;28;20028;-73
2023/08/28 05:14:58;;;;;;;4.03;2.55;;;;;;;17.02;100.00;100366.69;5096226;28;20038;-73
2023/08/28 05:17:24;;;;;;;4.88;2.17;;;;;;;16.96;100.00;100351.41;5077901;28;20128;-72
2023/08/28 05:19:49;;;;;;;2.78;2.03;;;;;;;16.98;100.00;100350.06;5094690;28;20050;-70
2023/08/28 05:22:14;;;;;;;3.80;2.20;;;;;;;17.08;100.00;100363.78;5077849;28;20491;-70
2023/08/28 05:24:40;;;;;;;3.72;2.20;;;;;;;17.16;100.00;100373.41;5096746;28;20394;-70
2023/08/28 05:27:05;;;;;;;2.88;2.10;;;;;;;17.21;100.00;100364.50;5097473;28;20035;-73
2023/08/28 05:29:31;;;;;;;4.05;2.15;;;;;;;17.27;100.00;100380.59;5088983;28;20067;-72
2023/08/28 05:31:56;;;;;;;3.38;2.20;;;;;;;17.20;100.00;100352.78;5077643;28;20541;-72
2023/08/28 05:34:22;;;;;;;3.90;1.80;;;;;;;17.37;100.00;100375.28;5076933;28;20035;-71
2023/08/28 05:36:48;;;;;;;4.47;2.17;;;;;;;17.43;100.00;100378.06;5094686;28;20055;-70
2023/08/28 05:39:13;;;;;;;3.95;2.90;;;;;;;17.49;100.00;100372.44;5062568;28;20020;-70
2023/08/28 05:41:38;;;;;;;3.83;2.05;;;;;;;17.12;100.00;100315.19;5095068;28;20043;-72
2023/08/28 05:44:04;;;;;;;7.00;2.33;;;;;;;17.51;100.00;100374.88;5097319;28;20129;-73
2023/08/28 05:46:29;;;;;;;5.13;1.98;;;;;;;17.51;100.00;100370.25;5098208;28;20032;-71
2023/08/28 05:48:55;;;;;;;4.75;1.70;;;;;;;17.56;100.00;100366.78;5097930;28;20575;-72
2023/08/28 05:51:20;;;;;;;5.60;2.17;;;;;;;17.63;100.00;100370.13;5097311;28;20526;-71
2023/08/28 05:53:46;;;;;;;4.43;1.92;;;;;;;17.65;100.00;100358.97;5096407;28;20048;-71
2023/08/28 05:56:11;;;;;;;8.15;1.83;;;;;;;17.77;100.00;100368.66;5097276;28;20020;-71
2023/08/28 05:58:37;;;;;;;7.32;1.60;;;;;;;17.87;100.00;100367.13;5095715;28;20038;-71
2023/08/28 06:01:03;;;;;;;3.05;1.60;;;;;;;17.83;100.00;100348.59;5079403;28;20024;-71
2023/08/28 06:03:28;;;;;;;2.83;1.30;;;;;;;17.94;100.00;100365.81;5096240;28;20125;-72
2023/08/28 06:05:55;;;;;;;10.30;1.63;;;;;;;17.95;100.00;100362.03;5078119;28;20137;-71
2023/08/28 06:08:20;;;;;;;5.80;1.60;;;;;;;17.84;100.00;100341.25;5099715;28;20099;-71
2023/08/28 06:10:46;;;;;;;4.88;1.27;;;;;;;17.86;100.00;100335.56;5083802;28;20076;-71
2023/08/28 06:13:12;;;;;;;2.33;1.40;;;;;;;17.96;100.00;100355.50;5095655;28;20049;-71
2023/08/28 06:15:37;;;;;;;5.40;1.70;;;;;;;17.99;100.00;100349.53;5077843;28;20028;-71
2023/08/28 06:18:04;;;;;;;7.45;1.50;;;;;;;18.06;100.00;100350.16;5095674;28;20149;-70
2023/08/28 06:20:30;;;;;;;5.45;1.50;;;;;;;18.12;100.00;100353.75;5078219;28;20661;-70
2023/08/28 06:22:56;;;;;;;5.40;1.48;;;;;;;18.08;100.00;100339.00;5094184;28;20073;-71
2023/08/28 06:25:22;;;;;;;7.30;1.55;;;;;;;18.09;100.00;100329.75;5093187;28;20384;-71
2023/08/28 06:27:48;;;;;;;5.30;1.83;;;;;;;18.15;100.00;100325.19;5094002;28;20020;-71
2023/08/28 06:30:13;;;;;;;4.60;1.42;;;;;;;18.40;100.00;100354.47;5096086;28;20024;-70
2023/08/28 06:32:39;;;;;;;6.20;1.60;;;;;;;18.58;100.00;100351.34;5096207;28;20028;-71
2023/08/28 06:35:05;;;;;;;5.15;1.52;;;;;;;18.70;100.00;100346.50;5095391;28;20020;-72
2023/08/28 06:37:31;;;;;;;5.70;1.67;;;;;;;18.92;100.00;100348.28;5093208;28;20039;-71
2023/08/28 06:39:56;;;;;;;6.43;1.65;;;;;;;19.09;100.00;100334.44;5093864;28;20119;-73
2023/08/28 06:42:22;;;;;;;3.58;1.25;;;;;;;19.40;100.00;100358.00;5077252;28;20061;-73
2023/08/28 06:44:47;;;;;;;5.82;1.48;;;;;;;19.58;100.00;100353.94;5095173;28;20048;-72
2023/08/28 06:47:13;;;;;;;3.83;1.20;;;;;;;19.80;100.00;100358.38;5095207;28;20028;-73
2023/08/28 06:49:38;;;;;;;4.13;1.20;;;;;;;20.09;100.00;100348.56;5095645;28;20365;-72
2023/08/28 06:52:04;;;;;;;3.80;1.13;;;;;;;20.27;100.00;100355.41;5094649;28;20048;-71
2023/08/28 06:54:32;;;;;;;4.05;1.30;;;;;;;20.47;100.00;100359.22;5092573;28;20024;-73
2023/08/28 06:56:58;;;;;;;3.50;1.38;;;;;;;20.55;100.00;100355.94;5093379;28;20024;-71
2023/08/28 06:59:24;;;;;;;5.70;1.42;;;;;;;20.60;100.00;100358.66;5078661;28;20024;-72
2023/08/28 07:01:49;;;;;;;3.40;1.33;;;;;;;20.52;100.00;100354.56;5079397;28;20043;-72
2023/08/28 07:04:15;;;;;;;4.93;1.40;;;;;;;20.48;100.00;100358.91;5097103;28;20086;-74
2023/08/28 07:06:40;;;;;;;3.97;1.42;;;;;;;20.50;100.00;100361.38;5078294;28;20035;-73
2023/08/28 07:09:06;;;;;;;9.75;1.50;;;;;;;20.43;100.00;100361.66;5095622;28;20036;-73
2023/08/28 07:11:31;;;;;;;4.65;1.30;;;;;;;20.30;100.00;100343.09;5096788;28;20062;-71
2023/08/28 07:13:58;;;;;;;4.05;1.13;;;;;;;20.57;100.00;100357.28;5098196;28;20012;-73
2023/08/28 07:16:24;;;;;;;2.28;1.20;;;;;;;20.77;100.00;100359.16;5092640;28;20032;-72
2023/08/28 07:18:49;;;;;;;3.17;1.55;;;;;;;20.86;100.00;100357.50;5097702;28;20032;-72
2023/08/28 07:21:15;;;;;;;3.65;1.40;;;;;;;20.95;100.00;100360.47;5098431;28;20024;-72
2023/08/28 07:23:41;;;;;;;4.57;1.30;;;;;;;21.12;100.00;100360.13;5096846;28;20092;-72
2023/08/28 07:26:07;;;;;;;4.82;1.30;;;;;;;21.15;100.00;100343.16;5097226;28;20060;-73
2023/08/28 07:28:33;;;;;;;7.15;1.65;;;;;;;21.27;100.00;100361.97;5097305;28;20020;-71
2023/08/28 07:31:00;;;;;;;4.78;1.20;;;;;;;21.23;100.00;100364.47;5080403;28;20024;-72
2023/08/28 07:33:25;;;;;;;4.78;1.30;;;;;;;21.43;100.00;100365.50;5089084;28;20120;-73
2023/08/28 07:35:51;;;;;;;5.05;1.33;;;;;;;21.50;100.00;100355.88;5078998;28;20048;-71
2023/08/28 07:38:17;;;;;;;9.40;1.65;;;;;;;21.55;100.00;100360.47;5081785;28;20024;-70
2023/08/28 07:40:43;;;;;;;7.78;1.70;;;;;;;21.49;99.45;100356.97;5098909;28;20073;-71
2023/08/28 07:43:08;;;;;;;6.13;1.65;;;;;;;21.71;98.92;100374.91;5101166;28;20446;-72
2023/08/28 07:45:33;;;;;;;6.25;1.35;;;;;;;21.79;98.08;100371.56;5098848;28;20036;-71
2023/08/28 07:47:59;;;;;;;7.57;1.25;;;;;;;21.87;97.51;100373.69;5085636;28;20028;-71
2023/08/28 07:50:26;;;;;;;4.45;1.10;;;;;;;21.86;96.19;100368.50;5103489;28;20038;-71
2023/08/28 07:52:51;;;;;;;5.38;1.33;;;;;;;21.88;95.13;100371.78;5102100;28;20166;-71
2023/08/28 07:55:17;;;;;;;4.68;1.20;;;;;;;21.81;94.99;100364.69;5096670;28;20023;-71
2023/08/28 07:57:42;;;;;;;4.32;1.00;;;;;;;21.90;95.19;100377.78;5080760;28;20058;-71
2023/08/28 08:00:13;;;;;;;6.80;1.20;;;;;;;21.77;95.33;100371.03;5097737;28;20020;-71
2023/08/28 08:02:38;;;;;;;5.57;1.27;;;;;;;21.84;94.82;100387.97;5082172;28;20028;-72
2023/08/28 08:05:04;;;;;;;7.20;1.15;;;;;;;21.76;95.38;100383.91;5100055;28;20036;-71
2023/08/28 08:07:32;;;;;;;5.68;1.60;;;;;;;21.77;95.26;100382.78;5095277;28;20049;-72
2023/08/28 08:09:57;;;;;;;5.10;1.00;;;;;;;21.76;94.44;100380.34;5089045;28;20039;-71
2023/08/28 08:12:23;;;;;;;6.35;1.30;;;;;;;21.73;94.47;100372.69;5104846;28;20059;-71
2023/08/28 08:14:48;;;;;;;4.40;1.20;;;;;;;21.81;94.20;100394.00;5089438;28;20032;-72
2023/08/28 08:17:14;;;;;;;6.68;1.30;;;;;;;21.79;94.14;100391.56;5077488;28;20021;-71
2023/08/28 08:19:39;;;;;;;5.72;1.30;;;;;;;21.85;93.08;100391.50;5076881;28;20029;-72
2023/08/28 08:22:06;;;;;;;5.47;1.23;;;;;;;21.97;92.26;100386.50;5059539;28;20032;-71
2023/08/28 08:24:32;;;;;;;2.67;1.00;;;;;;;21.99;91.89;100390.59;5070006;28;20027;-71
2023/08/28 08:26:57;;;;;;;6.10;1.70;;;;;;;22.08;91.59;100392.72;5094370;28;20035;-71
2023/08/28 08:29:23;;;;;;;3.85;0.88;;;;;;;21.89;91.79;100398.88;5098487;28;20210;-71
2023/08/28 08:31:50;;;;;;;4.35;1.10;;;;;;;21.66;91.57;100402.31;5064784;28;20032;-72
2023/08/28 08:34:18;;;;;;;3.33;1.10;;;;;;;21.54;91.59;100400.72;5081181;28;20031;-72
2023/08/28 08:36:43;;;;;;;6.35;1.20;;;;;;;21.55;90.97;100402.34;5099801;28;20172;-72
2023/08/28 08:39:09;;;;;;;4.22;1.05;;;;;;;21.69;91.07;100409.94;5099793;28;20024;-72
2023/08/28 08:41:34;;;;;;;6.15;1.45;;;;;;;21.91;90.28;100404.06;5101023;28;20109;-71
2023/08/28 08:44:00;;;;;;;4.82;1.20;;;;;;;22.08;89.95;100414.63;5100481;28;20032;-72
2023/08/28 08:46:26;;;;;;;10.45;1.52;;;;;;;22.12;89.48;100402.84;5099037;28;20020;-72
2023/08/28 08:48:54;;;;;;;6.85;1.20;;;;;;;22.05;89.55;100394.94;5097857;28;20036;-72
2023/08/28 08:51:24;;;;;;;6.78;1.27;;;;;;;22.10;90.73;100407.78;5097495;28;20522;-72
2023/08/28 08:53:59;;;;;;;7.57;1.50;;;;;;;22.01;91.42;100410.28;5100243;28;20032;-71
2023/08/28 08:56:31;;;;;;;5.68;1.30;;;;;;;21.84;92.89;100407.13;5099390;28;20020;-71
2023/08/28 08:58:57;;;;;;;8.75;1.70;;;;;;;21.70;93.94;100414.34;5098991;28;20019;-71
2023/08/28 09:01:25;;;;;;;6.43;1.25;;;;;;;21.47;95.30;100418.56;5094953;28;20783;-71
2023/08/28 09:03:51;;;;;;;5.50;1.60;;;;;;;21.30;96.36;100421.63;5091231;28;20039;-71
2023/08/28 09:06:16;;;;;;;4.70;1.23;;;;;;;21.05;97.42;100428.81;5096476;28;20024;-71
2023/08/28 09:08:42;;;;;;;5.65;1.27;;;;;;;20.96;97.91;100422.28;5098607;28;20035;-71
2023/08/28 09:11:08;;;;;;;4.90;1.30;;;;;;;20.89;98.67;100424.47;5095466;28;20036;-72
2023/08/28 09:13:38;;;;;;;5.75;1.10;;;;;;;20.74;99.10;100413.59;5106002;28;20538;-71
2023/08/28 09:16:04;;;;;;;6.70;1.08;;;;;;;20.63;99.36;100419.06;5096594;28;20039;-71
2023/08/28 09:18:32;;;;;;;5.47;1.13;;;;;;;20.28;99.35;100414.41;5095644;28;20390;-71
2023/08/28 09:21:09;;;;;;;4.20;1.20;;;;;;;20.32;99.85;100431.06;5079449;28;20028;-71
2023/08/28 09:23:40;;;;;;;7.30;1.17;;;;;;;20.62;98.21;100431.09;5096636;28;20031;-71
2023/08/28 09:26:05;;;;;;;3.08;1.15;;;;;;;20.85;97.49;100431.59;5096374;28;20173;-71
2023/08/28 09:28:31;;;;;;;5.45;1.20;;;;;;;21.04;97.37;100431.84;5097027;28;20435;-71
2023/08/28 09:30:56;;;;;;;3.35;1.00;;;;;;;21.39;96.48;100425.47;5097657;28;20043;-72
2023/08/28 09:33:22;;;;;;;3.30;1.17;;;;;;;21.55;94.75;100421.53;5096854;28;20036;-71
2023/08/28 09:35:48;;;;;;;4.15;1.05;;;;;;;21.37;95.14;100419.44;5100795;28;20050;-72
2023/08/28 09:38:14;;;;;;;4.28;1.10;;;;;;;21.18;94.89;100430.13;5098673;28;20024;-71
2023/08/28 09:40:41;;;;;;;3.53;1.10;;;;;;;21.13;94.81;100423.88;5099214;28;20084;-71
2023/08/28 09:43:13;;;;;;;2.38;1.20;;;;;;;21.20;94.28;100427.97;5094902;28;20121;-71
2023/08/28 09:45:40;;;;;;;2.83;1.05;;;;;;;21.09;94.54;100435.38;5093948;28;20395;-71
2023/08/28 09:48:06;;;;;;;4.57;0.90;;;;;;;21.17;93.58;100423.03;5099542;28;20024;-72
2023/08/28 09:50:36;;;;;;;2.58;0.98;;;;;;;21.10;93.80;100428.81;5105318;28;20110;-72
2023/08/28 09:53:07;;;;;;;2.10;0.70;;;;;;;21.06;93.50;100435.13;5093990;28;20410;-71
2023/08/28 09:55:36;;;;;;;3.40;0.98;;;;;;;21.13;93.81;100429.34;5087366;28;20016;-73
2023/08/28 09:58:07;;;;;;;5.03;0.95;;;;;;;20.93;93.84;100419.28;5075830;28;20035;-73
2023/08/28 10:00:33;;;;;;;3.28;1.17;;;;;;;20.84;93.78;100435.44;5086021;28;20027;-72
2023/08/28 10:03:00;;;;;;;1.83;0.90;;;;;;;20.95;93.27;100431.56;5064360;28;20032;-74
2023/08/28 10:05:27;;;;;;;3.78;1.25;;;;;;;21.00;92.60;100434.31;5072457;28;20024;-72
2023/08/28 10:07:57;;;;;;;2.67;1.00;;;;;;;21.16;91.52;100431.50;5095397;28;20085;-72
2023/08/28 10:10:24;;;;;;;2.42;0.90;;;;;;;21.28;90.97;100430.09;5093867;28;20119;-72
2023/08/28 10:12:51;;;;;;;3.80;0.82;;;;;;;21.36;90.89;100426.00;5097608;28;20036;-74
2023/08/28 10:15:18;;;;;;;5.22;1.00;;;;;;;21.54;90.60;100435.50;5079287;28;20039;-73
2023/08/28 10:17:44;;;;;;;4.47;0.90;;;;;;;21.46;89.54;100436.91;5093950;28;20058;-73
2023/08/28 10:20:12;;;;;;;1.80;0.77;;;;;;;21.56;88.21;100428.66;5091636;28;20119;-72
2023/08/28 10:22:39;;;;;;;1.67;0.80;;;;;;;21.48;86.38;100434.69;5073340;28;20428;-73
2023/08/28 10:25:05;;;;;;;9.93;1.52;;;;;;;21.04;86.96;100408.03;5093570;28;20024;-74
2023/08/28 10:27:32;;;;;;;4.63;1.02;;;;;;;21.19;87.17;100431.81;5092848;28;20032;-73
2023/08/28 10:30:03;;;;;;;2.08;1.00;;;;;;;21.25;86.65;100440.78;5073998;28;20058;-74
2023/08/28 10:32:31;;;;;;;4.20;1.10;;;;;;;21.32;87.05;100428.47;5095190;28;20391;-73
2023/08/28 10:34:57;;;;;;;1.85;0.80;;;;;;;21.48;87.14;100440.19;5097503;28;20042;-73
2023/08/28 10:37:23;;;;;;;3.95;0.98;;;;;;;21.56;86.40;100445.09;5094717;28;20053;-74
2023/08/28 10:39:49;;;;;;;3.38;1.08;;;;;;;21.65;84.99;100428.06;5095763;28;20736;-73
2023/08/28 10:42:18;;;;;;;2.38;0.80;;;;;;;21.90;84.77;100449.81;5090939;28;20123;-74
2023/08/28 10:44:45;;;;;;;3.50;0.90;;;;;;;21.84;84.63;100439.19;5084024;28;20027;-74
2023/08/28 10:47:19;;;;;;;3.13;0.90;;;;;;;22.07;83.83;100446.69;5096306;28;20039;-74
2023/08/28 10:49:45;;;;;;;3.25;0.80;;;;;;;21.93;83.59;100452.00;5098585;28;20043;-73
2023/08/28 10:52:12;;;;;;;2.83;0.93;;;;;;;21.11;86.74;100452.31;5094958;28;20156;-74
2023/08/28 10:54:39;;;;;;;1.38;0.73;;;;;;;21.18;87.14;100462.97;5095281;28;20020;-74
2023/08/28 10:57:10;;;;;;;2.75;1.02;;;;;;;21.19;86.73;100459.16;5091468;28;20057;-73
2023/08/28 10:59:54;;;;;;;2.40;0.90;;;;;;;21.26;85.56;100465.16;5099053;28;20051;-74
2023/08/28 11:02:20;;;;;;;7.53;1.60;;;;;;;21.24;85.00;100469.25;5099466;28;20115;-74
2023/08/28 11:04:47;;;;;;;6.03;1.08;;;;;;;21.20;82.92;100469.00;5080575;28;20040;-74
2023/08/28 11:07:42;;;;;;;3.30;0.75;;;;;;;21.68;80.55;100476.78;5090247;28;20573;-74
2023/08/28 11:10:21;;;;;;;6.15;0.95;;;;;;;21.57;79.87;100467.81;5071571;28;20040;-74
2023/08/28 11:12:54;;;;;;;2.58;0.80;;;;;;;21.33;81.15;100478.53;5114185;28;20016;-74
2023/08/28 11:15:27;;;;;;;2.55;0.60;;;;;;;21.37;80.00;100470.63;5103314;28;20628;-74
2023/08/28 11:18:19;;;;;;;2.22;0.80;;;;;;;21.27;80.02;100474.19;5111953;28;20086;-74